createdAt,value
2019-03-27T00:02:10.907Z,6.23
2019-03-27T00:04:40.937Z,6.57
2019-03-27T00:07:11.466Z,6.17
2019-03-27T00:09:41.509Z,5.73
2019-03-27T00:12:12.110Z,5.90
2019-03-27T00:14:42.643Z,5.73
2019-03-27T00:17:12.760Z,5.57
2019-03-27T00:19:43.084Z,5.27
2019-03-27T00:22:13.408Z,6.30
2019-03-27T00:24:43.731Z,5.93
2019-03-27T00:27:14.259Z,6.57
2019-03-27T00:29:44.788Z,5.90
2019-03-27T00:32:15.112Z,7.17
2019-03-27T00:34:45.437Z,5.37
2019-03-27T00:37:15.759Z,4.77
2019-03-27T00:39:46.083Z,5.60
2019-03-27T00:42:16.408Z,5.93
2019-03-27T00:44:46.943Z,6.27
2019-03-27T00:47:17.464Z,6.00
2019-03-27T00:49:47.584Z,6.10
2019-03-27T00:52:17.906Z,6.57
2019-03-27T00:54:48.233Z,6.63
2019-03-27T00:57:18.350Z,7.17
2019-03-27T00:59:48.673Z,6.63
2019-03-27T01:02:19.203Z,6.50
2019-03-27T01:04:50.139Z,6.77
2019-03-27T01:07:20.465Z,7.30
2019-03-27T01:09:51.199Z,8.50
2019-03-27T01:12:21.520Z,7.10
2019-03-27T01:14:51.845Z,7.07
2019-03-27T01:17:22.186Z,7.47
2019-03-27T01:19:52.901Z,7.27
2019-03-27T01:22:23.224Z,14.03
2019-03-27T01:24:53.752Z,12.13
2019-03-27T01:27:24.076Z,14.13
2019-03-27T01:29:54.605Z,13.27
2019-03-27T01:32:44.388Z,8.40
2019-03-27T01:35:14.709Z,7.90
2019-03-27T01:37:44.829Z,6.80
2019-03-27T01:40:15.564Z,8.97
2019-03-27T01:42:46.499Z,6.73
2019-03-27T01:45:17.233Z,8.70
2019-03-27T01:47:47.555Z,6.77
2019-03-27T01:50:17.881Z,5.47
2019-03-27T01:52:48.001Z,5.60
2019-03-27T01:55:18.132Z,13.40
2019-03-27T01:57:48.850Z,9.60
2019-03-27T02:00:19.379Z,8.23
2019-03-27T02:02:49.498Z,6.00
2019-03-27T02:05:19.822Z,9.07
2019-03-27T02:07:49.940Z,5.83
2019-03-27T02:10:21.145Z,7.87
2019-03-27T02:12:51.406Z,7.07
2019-03-27T02:15:21.935Z,5.53
2019-03-27T02:17:52.055Z,6.10
2019-03-27T02:20:22.379Z,7.30
2019-03-27T02:22:52.732Z,5.70
2019-03-27T02:25:23.438Z,4.80
2019-03-27T02:27:53.759Z,4.20
2019-03-27T02:30:36.113Z,3.90
2019-03-27T02:33:06.290Z,4.23
2019-03-27T02:35:36.814Z,6.43
2019-03-27T02:38:07.143Z,6.53
2019-03-27T02:40:37.512Z,5.43
2019-03-27T02:43:08.541Z,3.97
2019-03-27T02:45:39.336Z,4.20
2019-03-27T02:48:09.463Z,3.73
2019-03-27T02:50:39.779Z,3.53
2019-03-27T02:53:10.103Z,6.03
2019-03-27T02:55:40.427Z,4.70
2019-03-27T02:58:10.767Z,3.97
2019-03-27T03:00:41.076Z,4.17
2019-03-27T03:03:11.808Z,3.87
2019-03-27T03:05:42.135Z,3.60
2019-03-27T03:08:12.457Z,4.50
2019-03-27T03:10:45.460Z,5.00
2019-03-27T03:13:14.547Z,5.30
2019-03-27T03:15:44.860Z,6.40
2019-03-27T03:18:15.189Z,6.57
2019-03-27T03:20:45.904Z,6.90
2019-03-27T03:23:16.242Z,6.47
2019-03-27T03:25:46.571Z,8.20
2019-03-27T03:28:16.687Z,7.27
2019-03-27T03:30:47.025Z,7.10
2019-03-27T03:33:17.537Z,7.60
2019-03-27T03:35:47.861Z,7.90
2019-03-27T03:38:18.183Z,9.27
2019-03-27T03:40:48.510Z,8.27
2019-03-27T03:43:18.832Z,8.33
2019-03-27T03:45:49.361Z,7.07
2019-03-27T03:48:19.886Z,6.97
2019-03-27T03:50:51.235Z,6.97
2019-03-27T03:53:21.967Z,7.90
2019-03-27T03:55:53.725Z,6.60
2019-03-27T03:58:26.715Z,7.13
2019-03-27T04:00:57.244Z,6.20
2019-03-27T04:03:30.360Z,6.50
2019-03-27T04:06:00.755Z,6.63
2019-03-27T04:08:31.283Z,7.47
2019-03-27T04:11:01.812Z,6.37
2019-03-27T04:13:32.024Z,7.53
2019-03-27T04:16:03.888Z,6.27
2019-03-27T04:18:34.215Z,5.17
2019-03-27T04:21:04.744Z,8.53
2019-03-27T04:23:36.504Z,4.70
2019-03-27T04:26:10.256Z,5.50
2019-03-27T04:28:38.791Z,7.77
2019-03-27T04:31:09.112Z,8.00
2019-03-27T04:33:39.439Z,6.30
2019-03-27T04:36:09.967Z,4.77
2019-03-27T04:38:40.493Z,6.10
2019-03-27T04:41:10.611Z,8.03
2019-03-27T04:43:40.935Z,5.40
2019-03-27T04:46:11.259Z,5.13
2019-03-27T04:48:41.589Z,4.57
2019-03-27T04:51:12.111Z,6.17
2019-03-27T04:53:42.437Z,5.97
2019-03-27T04:56:12.553Z,6.00
2019-03-27T04:58:42.876Z,5.63
2019-03-27T05:01:13.212Z,7.57
2019-03-27T05:03:43.526Z,5.50
2019-03-27T05:06:13.847Z,6.63
2019-03-27T05:08:44.155Z,6.80
2019-03-27T05:11:14.291Z,4.50
2019-03-27T05:13:44.411Z,5.10
2019-03-27T05:16:15.150Z,4.20
2019-03-27T05:18:52.429Z,7.47
2019-03-27T05:21:22.755Z,4.67
2019-03-27T05:23:53.677Z,5.57
2019-03-27T05:26:24.017Z,5.00
2019-03-27T05:28:54.543Z,3.17
2019-03-27T05:31:24.867Z,3.10
2019-03-27T05:33:55.191Z,2.37
2019-03-27T05:36:25.514Z,2.17
2019-03-27T05:38:56.042Z,2.90
2019-03-27T05:41:26.570Z,5.27
2019-03-27T05:43:57.098Z,5.20
2019-03-27T05:46:27.627Z,3.60
2019-03-27T05:48:57.965Z,3.23
2019-03-27T05:51:28.276Z,3.50
2019-03-27T05:54:02.291Z,3.10
2019-03-27T05:56:53.507Z,3.60
2019-03-27T05:59:23.619Z,2.77
2019-03-27T06:01:53.942Z,2.80
2019-03-27T06:04:24.265Z,2.60
2019-03-27T06:06:54.588Z,2.70
2019-03-27T06:09:24.916Z,2.67
2019-03-27T06:11:55.235Z,4.77
2019-03-27T06:14:25.445Z,4.20
2019-03-27T06:16:56.292Z,6.57
2019-03-27T06:19:26.616Z,3.77
2019-03-27T06:22:00.626Z,4.20
2019-03-27T06:24:30.953Z,5.07
2019-03-27T06:27:01.481Z,5.40
2019-03-27T06:29:32.419Z,6.57
2019-03-27T06:32:02.744Z,8.80
2019-03-27T06:34:33.067Z,4.30
2019-03-27T06:37:03.389Z,8.57
2019-03-27T06:39:33.514Z,4.80
2019-03-27T06:42:04.038Z,4.97
2019-03-27T06:44:34.360Z,3.90
2019-03-27T06:47:04.683Z,7.10
2019-03-27T06:49:35.008Z,6.33
2019-03-27T06:52:05.745Z,6.27
2019-03-27T06:54:35.950Z,6.77
2019-03-27T06:57:06.186Z,7.23
2019-03-27T06:59:36.510Z,7.87
2019-03-27T07:02:07.036Z,11.63
2019-03-27T07:04:37.359Z,11.53
2019-03-27T07:07:07.684Z,9.57
2019-03-27T07:09:38.011Z,6.67
2019-03-27T07:12:20.480Z,4.87
2019-03-27T07:14:40.496Z,3.73
2019-03-27T07:17:10.898Z,4.40
2019-03-27T07:19:41.761Z,4.50
2019-03-27T07:22:12.085Z,5.60
2019-03-27T07:24:42.201Z,4.47
2019-03-27T07:27:12.733Z,4.93
2019-03-27T07:29:43.259Z,4.00
2019-03-27T07:32:13.377Z,5.70
2019-03-27T07:34:43.706Z,4.43
2019-03-27T07:37:14.229Z,5.60
2019-03-27T07:39:44.552Z,5.53
2019-03-27T07:42:15.080Z,4.47
2019-03-27T07:44:45.404Z,4.50
2019-03-27T07:47:15.933Z,4.57
2019-03-27T07:49:46.256Z,4.60
2019-03-27T07:52:17.194Z,5.65
2019-03-27T07:54:47.520Z,4.72
2019-03-27T07:57:18.047Z,5.87
2019-03-27T07:59:48.166Z,5.37
2019-03-27T08:02:18.694Z,5.00
2019-03-27T08:04:49.223Z,5.47
2019-03-27T08:07:26.801Z,4.97
2019-03-27T08:09:51.305Z,3.50
2019-03-27T08:12:21.627Z,4.65
2019-03-27T08:14:51.951Z,4.03
2019-03-27T08:17:22.481Z,5.00
2019-03-27T08:19:53.007Z,5.47
2019-03-27T08:22:23.333Z,4.87
2019-03-27T08:24:53.860Z,4.78
2019-03-27T08:27:24.594Z,5.60
2019-03-27T08:29:55.122Z,5.37
2019-03-27T08:32:25.660Z,5.10
2019-03-27T08:34:56.386Z,4.42
2019-03-27T08:37:26.914Z,4.85
2019-03-27T08:39:57.031Z,4.10
2019-03-27T08:42:27.562Z,4.58
2019-03-27T08:44:58.295Z,4.37
2019-03-27T08:47:28.412Z,4.80
2019-03-27T08:49:58.735Z,4.72
2019-03-27T08:52:29.264Z,4.97
2019-03-27T08:55:00.003Z,4.67
2019-03-27T08:57:30.321Z,4.60
2019-03-27T09:00:02.640Z,4.08
2019-03-27T09:02:33.017Z,3.60
2019-03-27T09:05:03.341Z,3.60
2019-03-27T09:07:33.664Z,4.05
2019-03-27T09:10:06.035Z,3.65
2019-03-27T09:12:36.362Z,3.80
2019-03-27T09:15:09.037Z,3.70
2019-03-27T09:17:39.259Z,4.10
2019-03-27T09:20:10.181Z,5.25
2019-03-27T09:22:40.522Z,4.53
2019-03-27T09:25:11.050Z,4.10
2019-03-27T09:27:41.783Z,4.05
2019-03-27T09:30:13.607Z,4.00
2019-03-27T09:32:44.074Z,3.87
2019-03-27T09:35:14.598Z,3.70
2019-03-27T09:37:45.126Z,3.10
2019-03-27T09:40:15.898Z,3.75
2019-03-27T09:42:46.183Z,4.30
2019-03-27T09:45:16.711Z,4.40
2019-03-27T09:47:47.050Z,4.30
2019-03-27T09:50:20.029Z,5.03
2019-03-27T09:52:50.754Z,5.95
2019-03-27T09:55:21.510Z,4.78
2019-03-27T09:57:52.017Z,3.98
2019-03-27T10:00:49.480Z,4.45
2019-03-27T10:03:20.314Z,3.72
2019-03-27T10:05:50.636Z,3.80
2019-03-27T10:08:20.960Z,4.20
2019-03-27T10:10:51.695Z,4.28
2019-03-27T10:13:22.018Z,4.07
2019-03-27T10:15:52.956Z,3.98
2019-03-27T10:18:24.711Z,3.87
2019-03-27T10:20:55.447Z,4.70
2019-03-27T10:23:27.328Z,4.28
2019-03-27T10:25:59.370Z,4.85
2019-03-27T10:28:31.131Z,3.17
2019-03-27T10:31:01.452Z,4.83
2019-03-27T10:33:31.775Z,3.80
2019-03-27T10:36:02.306Z,3.58
2019-03-27T10:38:34.065Z,2.50
2019-03-27T10:41:07.961Z,3.10
2019-03-27T10:43:38.599Z,2.77
2019-03-27T10:46:09.961Z,3.83
2019-03-27T10:48:52.336Z,3.30
2019-03-27T10:51:14.693Z,4.50
2019-03-27T10:53:45.453Z,3.80
2019-03-27T10:56:15.752Z,3.00
2019-03-27T10:58:47.293Z,2.62
2019-03-27T11:01:17.626Z,3.10
2019-03-27T11:03:48.155Z,4.35
2019-03-27T11:06:18.686Z,2.72
2019-03-27T11:08:49.006Z,2.92
2019-03-27T11:11:19.330Z,2.77
2019-03-27T11:13:49.858Z,3.22
2019-03-27T11:16:20.385Z,2.83
2019-03-27T11:18:50.710Z,4.50
2019-03-27T11:21:21.853Z,3.27
2019-03-27T11:23:52.176Z,8.45
2019-03-27T11:26:22.499Z,3.77
2019-03-27T11:28:53.233Z,4.08
2019-03-27T11:31:23.762Z,6.17
2019-03-27T11:33:54.085Z,2.90
2019-03-27T11:36:26.736Z,3.20
2019-03-27T11:38:57.599Z,5.72
2019-03-27T11:41:28.128Z,3.08
2019-03-27T11:43:58.861Z,9.85
2019-03-27T11:46:32.080Z,4.40
2019-03-27T11:49:01.568Z,5.72
2019-03-27T11:51:31.914Z,2.62
2019-03-27T11:54:03.637Z,2.52
2019-03-27T11:56:35.074Z,4.78
2019-03-27T11:59:05.930Z,3.52
2019-03-27T12:01:42.053Z,4.28
2019-03-27T12:04:08.619Z,5.92
2019-03-27T12:06:38.945Z,3.22
2019-03-27T12:09:09.267Z,2.42
2019-03-27T12:11:39.801Z,2.40
2019-03-27T12:14:12.313Z,2.60
2019-03-27T12:16:42.082Z,2.20
2019-03-27T12:19:12.405Z,2.37
2019-03-27T12:21:43.140Z,2.90
2019-03-27T12:24:13.667Z,2.20
2019-03-27T12:26:43.990Z,2.37
2019-03-27T12:29:26.281Z,2.80
2019-03-27T12:31:56.750Z,2.85
2019-03-27T12:34:27.445Z,3.40
2019-03-27T12:36:57.574Z,2.62
2019-03-27T12:39:27.898Z,3.00
2019-03-27T12:41:58.221Z,3.10
2019-03-27T12:44:28.545Z,2.52
2019-03-27T12:46:59.058Z,3.85
2019-03-27T12:49:29.397Z,4.03
2019-03-27T12:51:59.721Z,3.80
2019-03-27T12:54:29.839Z,3.58
2019-03-27T12:57:00.163Z,2.70
2019-03-27T12:59:30.283Z,2.27
2019-03-27T13:02:00.810Z,2.50
2019-03-27T13:04:31.544Z,2.52
2019-03-27T13:07:01.868Z,2.70
2019-03-27T13:09:32.192Z,2.92
2019-03-27T13:12:02.720Z,2.02
2019-03-27T13:14:33.043Z,3.47
2019-03-27T13:17:03.367Z,3.30
2019-03-27T13:19:33.691Z,3.87
2019-03-27T13:22:04.015Z,3.85
2019-03-27T13:24:34.544Z,2.05
2019-03-27T13:27:06.096Z,2.35
2019-03-27T13:29:36.829Z,2.72
2019-03-27T13:32:07.155Z,3.40
2019-03-27T13:34:37.681Z,3.02
2019-03-27T13:37:07.507Z,3.55
2019-03-27T13:39:37.425Z,2.90
2019-03-27T13:42:07.479Z,3.08
2019-03-27T13:44:37.699Z,3.90
2019-03-27T13:47:08.004Z,4.25
2019-03-27T13:49:38.171Z,5.65
2019-03-27T13:52:08.102Z,2.60
2019-03-27T13:54:38.097Z,3.40
2019-03-27T13:57:08.142Z,3.22
2019-03-27T13:59:38.034Z,2.83
2019-03-27T14:02:08.057Z,3.70
2019-03-27T14:04:38.107Z,5.00
2019-03-27T14:07:08.153Z,5.13
2019-03-27T14:09:38.055Z,3.50
2019-03-27T14:12:07.999Z,5.67
2019-03-27T14:14:49.643Z,3.55
2019-03-27T14:17:10.877Z,2.80
2019-03-27T14:19:40.900Z,3.30
2019-03-27T14:22:10.825Z,3.80
2019-03-27T14:24:40.870Z,2.92
2019-03-27T14:27:10.769Z,4.13
2019-03-27T14:29:40.596Z,8.00
2019-03-27T14:32:10.554Z,8.50
2019-03-27T14:34:43.566Z,6.93
2019-03-27T14:37:13.724Z,3.17
2019-03-27T14:39:43.707Z,3.00
2019-03-27T14:42:13.687Z,3.20
2019-03-27T14:44:48.757Z,3.20
2019-03-27T14:47:20.215Z,4.00
2019-03-27T14:49:50.036Z,4.20
2019-03-27T14:52:20.010Z,4.40
2019-03-27T14:54:49.991Z,4.13
2019-03-27T14:57:19.959Z,4.47
2019-03-27T14:59:49.961Z,9.20
2019-03-27T15:02:20.117Z,9.13
2019-03-27T15:04:50.011Z,17.40
2019-03-27T15:07:19.965Z,8.80
2019-03-27T15:09:51.459Z,7.17
2019-03-27T15:12:21.458Z,7.20
2019-03-27T15:14:53.267Z,5.53
2019-03-27T15:17:23.184Z,5.43
2019-03-27T15:19:53.086Z,4.50
2019-03-27T15:22:23.821Z,5.70
2019-03-27T15:24:53.820Z,5.93
2019-03-27T15:27:23.717Z,5.73
2019-03-27T15:29:53.806Z,7.53
2019-03-27T15:32:23.663Z,6.07
2019-03-27T15:34:53.658Z,6.60
2019-03-27T15:37:23.667Z,8.90
2019-03-27T15:39:53.729Z,7.37
2019-03-27T15:42:23.781Z,5.90
2019-03-27T15:44:53.977Z,6.87
2019-03-27T15:47:23.873Z,6.13
2019-03-27T15:49:53.753Z,7.10
2019-03-27T15:52:35.651Z,7.93
2019-03-27T15:54:56.968Z,6.07
2019-03-27T15:57:26.883Z,7.53
2019-03-27T15:59:56.813Z,5.67
2019-03-27T16:02:27.899Z,6.90
2019-03-27T16:04:57.785Z,7.00
2019-03-27T16:07:31.025Z,6.23
2019-03-27T16:10:00.681Z,6.33
2019-03-27T16:12:30.597Z,7.13
2019-03-27T16:15:02.136Z,6.43
2019-03-27T16:17:32.132Z,10.10
2019-03-27T16:20:02.017Z,13.50
2019-03-27T16:22:31.932Z,12.27
2019-03-27T16:25:03.062Z,6.70
2019-03-27T16:27:33.018Z,17.47
2019-03-27T16:30:02.967Z,18.43
2019-03-27T16:32:32.900Z,11.37
2019-03-27T16:35:03.602Z,19.47
2019-03-27T16:37:33.542Z,17.33
2019-03-27T16:40:04.535Z,15.20
2019-03-27T16:42:34.554Z,20.00
2019-03-27T16:45:06.741Z,11.37
2019-03-27T16:47:36.655Z,12.07
2019-03-27T16:50:08.659Z,12.63
2019-03-27T16:52:38.480Z,12.73
2019-03-27T16:55:08.732Z,15.30
2019-03-27T16:57:38.755Z,13.40
2019-03-27T17:00:08.998Z,16.33
2019-03-27T17:02:38.913Z,23.13
2019-03-27T17:05:09.532Z,19.43
2019-03-27T17:07:39.431Z,25.77
2019-03-27T17:10:09.495Z,25.90
2019-03-27T17:12:39.316Z,31.90
2019-03-27T17:15:09.859Z,46.33
2019-03-27T17:17:39.678Z,24.50
2019-03-27T17:20:11.570Z,26.60
2019-03-27T17:22:41.588Z,26.90
2019-03-27T17:25:11.801Z,29.77
2019-03-27T17:27:41.722Z,24.30
2019-03-27T17:30:12.194Z,29.17
2019-03-27T17:32:42.084Z,36.93
2019-03-27T17:35:12.121Z,52.57
2019-03-27T17:37:42.120Z,25.43
2019-03-27T17:40:12.239Z,30.53
2019-03-27T17:42:42.085Z,25.43
2019-03-27T17:45:12.373Z,16.57
2019-03-27T17:47:42.374Z,24.10
2019-03-27T17:50:12.707Z,27.93
2019-03-27T17:52:42.627Z,17.00
2019-03-27T17:55:12.615Z,36.40
2019-03-27T17:57:42.617Z,13.80
2019-03-27T18:00:15.123Z,24.73
2019-03-27T18:02:45.136Z,27.97
2019-03-27T18:05:15.065Z,38.77
2019-03-27T18:07:45.035Z,26.83
2019-03-27T18:10:15.107Z,19.47
2019-03-27T18:12:45.115Z,13.07
2019-03-27T18:15:15.174Z,17.17
2019-03-27T18:17:45.110Z,11.40
2019-03-27T18:20:15.208Z,13.77
2019-03-27T18:22:45.203Z,10.60
2019-03-27T18:25:15.285Z,20.97
2019-03-27T18:27:45.263Z,8.40
2019-03-27T18:30:15.494Z,37.50
2019-03-27T18:32:45.488Z,19.77
2019-03-27T18:35:15.547Z,33.33
2019-03-27T18:37:45.488Z,29.13
2019-03-27T18:40:15.774Z,30.27
2019-03-27T18:42:45.771Z,32.40
2019-03-27T18:45:15.746Z,46.07
2019-03-27T18:47:45.760Z,34.13
2019-03-27T18:50:16.390Z,29.80
2019-03-27T18:52:46.315Z,26.20
2019-03-27T18:55:26.251Z,23.70
2019-03-27T18:57:59.451Z,23.87
2019-03-27T19:00:20.425Z,37.37
2019-03-27T19:02:50.455Z,34.53
2019-03-27T19:05:20.494Z,36.57
2019-03-27T19:07:50.483Z,23.27
2019-03-27T19:10:20.367Z,25.90
2019-03-27T19:12:50.327Z,29.47
2019-03-27T19:15:20.274Z,27.57
2019-03-27T19:17:50.304Z,23.73
2019-03-27T19:20:20.311Z,26.63
2019-03-27T19:22:50.386Z,17.73
2019-03-27T19:25:20.368Z,34.87
2019-03-27T19:27:50.395Z,33.87
2019-03-27T19:30:20.443Z,30.20
2019-03-27T19:32:50.573Z,30.63
2019-03-27T19:35:20.487Z,31.23
2019-03-27T19:37:50.473Z,36.60
2019-03-27T19:40:20.475Z,50.20
2019-03-27T19:42:50.512Z,35.27
2019-03-27T19:45:20.491Z,32.27
2019-03-27T19:47:50.379Z,43.63
2019-03-27T19:50:20.317Z,38.97
2019-03-27T19:52:50.306Z,37.13
2019-03-27T19:55:20.192Z,28.60
2019-03-27T19:57:50.247Z,53.10
2019-03-27T20:00:21.102Z,36.87
2019-03-27T20:02:50.951Z,13.47
2019-03-27T20:05:21.074Z,44.47
2019-03-27T20:07:51.004Z,28.53
2019-03-27T20:10:20.950Z,46.30
2019-03-27T20:12:50.873Z,52.23
2019-03-27T20:15:20.922Z,44.87
2019-03-27T20:17:50.847Z,31.20
2019-03-27T20:20:20.910Z,40.37
2019-03-27T20:22:50.901Z,35.47
2019-03-27T20:25:20.919Z,15.37
2019-03-27T20:27:51.281Z,24.97
2019-03-27T20:30:21.897Z,38.07
2019-03-27T20:32:53.367Z,40.63
2019-03-27T20:35:23.447Z,40.67
2019-03-27T20:37:53.445Z,17.60
2019-03-27T20:40:23.363Z,19.23
2019-03-27T20:42:53.287Z,12.73
2019-03-27T20:45:23.247Z,31.30
2019-03-27T20:47:53.243Z,24.70
2019-03-27T20:50:23.119Z,29.23
2019-03-27T20:52:53.035Z,25.33
2019-03-27T20:55:30.279Z,26.90
2019-03-27T20:57:54.623Z,25.27
2019-03-27T21:00:24.704Z,27.13
2019-03-27T21:02:54.647Z,23.83
2019-03-27T21:05:24.709Z,25.80
2019-03-27T21:07:54.643Z,26.07
2019-03-27T21:10:24.682Z,24.83
2019-03-27T21:12:54.698Z,27.73
2019-03-27T21:15:24.746Z,15.90
2019-03-27T21:17:54.635Z,17.83
2019-03-27T21:20:24.597Z,22.97
2019-03-27T21:22:54.520Z,11.13
2019-03-27T21:25:24.574Z,10.23
2019-03-27T21:27:54.397Z,11.60
2019-03-27T21:30:24.407Z,9.47
2019-03-27T21:32:54.407Z,9.50
2019-03-27T21:35:24.461Z,8.90
2019-03-27T21:37:54.352Z,8.27
2019-03-27T21:40:24.211Z,7.63
2019-03-27T21:42:54.137Z,7.50
2019-03-27T21:45:24.110Z,7.70
2019-03-27T21:47:54.111Z,8.27
2019-03-27T21:50:23.985Z,9.80
2019-03-27T21:53:00.670Z,11.73
2019-03-27T21:55:25.391Z,24.77
2019-03-27T21:57:55.371Z,25.57
2019-03-27T22:00:30.929Z,21.80
2019-03-27T22:03:00.920Z,18.00
2019-03-27T22:05:30.817Z,34.23
2019-03-27T22:08:00.880Z,33.37
2019-03-27T22:10:33.811Z,32.33
2019-03-27T22:13:03.801Z,31.40
2019-03-27T22:15:33.814Z,34.90
2019-03-27T22:18:03.680Z,38.50
2019-03-27T22:20:33.571Z,26.03
2019-03-27T22:23:03.588Z,45.17
2019-03-27T22:25:36.110Z,42.17
2019-03-27T22:28:05.158Z,42.73
2019-03-27T22:30:35.147Z,44.20
2019-03-27T22:33:05.112Z,33.73
2019-03-27T22:35:34.999Z,18.50
2019-03-27T22:38:04.987Z,11.40
2019-03-27T22:40:34.980Z,11.17
2019-03-27T22:43:05.022Z,11.37
2019-03-27T22:45:34.922Z,10.70
2019-03-27T22:48:04.959Z,9.73
2019-03-27T22:50:34.962Z,10.50
2019-03-27T22:53:04.788Z,10.50
2019-03-27T22:55:34.730Z,10.23
2019-03-27T22:58:04.715Z,10.07
2019-03-27T23:00:36.328Z,11.27
2019-03-27T23:03:17.664Z,12.20
2019-03-27T23:05:37.723Z,14.70
2019-03-27T23:08:07.543Z,16.97
2019-03-27T23:10:37.593Z,14.77
2019-03-27T23:13:07.511Z,12.87
2019-03-27T23:15:37.448Z,12.23
2019-03-27T23:18:07.441Z,11.70
2019-03-27T23:20:37.328Z,11.40
2019-03-27T23:23:07.217Z,10.50
2019-03-27T23:25:37.144Z,10.67
2019-03-27T23:28:07.139Z,11.00
2019-03-27T23:30:37.092Z,10.13
2019-03-27T23:33:07.079Z,10.27
2019-03-27T23:35:37.051Z,11.93
2019-03-27T23:38:07.037Z,9.70
2019-03-27T23:40:36.974Z,10.87
2019-03-27T23:43:07.377Z,11.40
2019-03-27T23:45:37.323Z,12.43
2019-03-27T23:48:07.219Z,11.27
2019-03-27T23:50:37.541Z,10.27
2019-03-27T23:53:07.519Z,10.13
2019-03-27T23:55:37.367Z,11.20
2019-03-27T23:58:07.363Z,10.73
